Time;durP1;ratioP1;P1;durP2;ratioP2;P2;SDS_P1;SDS_P2;PMS_P1;PMS_P2;Temp;Humidity;BMP_temperature;BMP_pressure;BME280_temperature;BME280_humidity;BME280_pressure;Samples;Min_cycle;Max_cycle;Signal;HPM_P1;HPM_P2
2022/06/29 00:02:17;;;;;;;1.37;1.27;;;23.80;52.90;;;;;;5106144;27;20651;-48
2022/06/29 00:04:58;;;;;;;1.57;1.30;;;23.80;52.90;;;;;;5063896;28;21137;-48
2022/06/29 00:07:39;;;;;;;2.40;1.60;;;23.90;52.90;;;;;;5085574;28;20930;-46
2022/06/29 00:10:20;;;;;;;1.33;1.23;;;23.80;53.20;;;;;;5068945;27;20923;-48
2022/06/29 00:13:01;;;;;;;1.40;1.30;;;23.90;53.30;;;;;;5108075;27;20579;-49
2022/06/29 00:15:42;;;;;;;2.17;1.53;;;23.80;53.10;;;;;;5072858;28;20535;-48
2022/06/29 00:18:24;;;;;;;1.40;1.30;;;23.90;52.90;;;;;;5112640;27;20591;-46
2022/06/29 00:21:04;;;;;;;1.37;1.20;;;23.90;52.90;;;;;;5078566;28;20932;-48
2022/06/29 00:23:46;;;;;;;1.63;1.53;;;23.80;52.80;;;;;;5068467;28;20554;-48
2022/06/29 00:26:26;;;;;;;1.60;1.30;;;23.80;52.80;;;;;;5112659;27;21048;-47
2022/06/29 00:29:06;;;;;;;1.40;1.27;;;23.80;52.90;;;;;;5114216;27;21137;-48
2022/06/29 00:31:48;;;;;;;2.23;1.47;;;23.80;52.90;;;;;;5085763;28;20945;-46
2022/06/29 00:34:30;;;;;;;1.27;1.17;;;23.80;53.10;;;;;;5069906;27;20613;-47
2022/06/29 00:37:11;;;;;;;1.93;1.70;;;23.80;52.90;;;;;;5083852;27;20640;-48
2022/06/29 00:39:52;;;;;;;2.77;1.40;;;23.80;52.90;;;;;;5122937;22;20568;-50
2022/06/29 00:42:33;;;;;;;1.57;1.47;;;23.80;52.90;;;;;;5127377;27;21121;-49
2022/06/29 00:45:13;;;;;;;1.57;1.47;;;23.80;52.90;;;;;;5053198;28;20611;-49
2022/06/29 00:47:53;;;;;;;2.40;1.10;;;23.80;52.90;;;;;;5067300;28;20552;-50
2022/06/29 00:50:34;;;;;;;1.43;1.20;;;23.80;52.90;;;;;;5087783;28;21110;-49
2022/06/29 00:53:16;;;;;;;2.40;1.63;;;23.80;52.90;;;;;;5082179;27;20514;-50
2022/06/29 00:56:01;;;;;;;2.33;1.30;;;23.80;52.90;;;;;;5081423;27;20972;-49
2022/06/29 00:58:43;;;;;;;1.87;1.47;;;23.80;52.90;;;;;;5052440;27;20666;-52
2022/06/29 01:01:24;;;;;;;1.50;1.17;;;23.80;52.80;;;;;;5086498;28;20525;-49
2022/06/29 01:04:05;;;;;;;1.43;1.33;;;23.80;52.90;;;;;;5106690;27;20550;-50
2022/06/29 01:06:46;;;;;;;1.20;1.10;;;23.80;52.90;;;;;;5083685;28;21054;-50
2022/06/29 01:09:27;;;;;;;1.33;1.23;;;23.80;52.90;;;;;;5067578;28;20561;-50
2022/06/29 01:12:09;;;;;;;1.37;1.27;;;23.80;52.90;;;;;;5113847;27;20524;-50
2022/06/29 01:14:51;;;;;;;2.13;1.47;;;23.80;52.80;;;;;;5044927;27;20607;-50
2022/06/29 01:17:32;;;;;;;1.63;1.50;;;23.80;52.90;;;;;;5065172;28;20592;-49
2022/06/29 01:20:13;;;;;;;1.37;1.17;;;23.80;52.80;;;;;;5066965;27;20556;-49
2022/06/29 01:22:53;;;;;;;2.03;1.17;;;23.80;52.90;;;;;;5126561;27;20593;-49
2022/06/29 01:25:33;;;;;;;2.03;1.70;;;23.80;52.80;;;;;;5107003;27;20541;-49
2022/06/29 01:28:16;;;;;;;1.30;0.97;;;23.80;52.90;;;;;;5008644;28;20524;-49
2022/06/29 01:30:57;;;;;;;1.10;1.00;;;23.80;52.80;;;;;;5114629;27;20568;-49
2022/06/29 01:33:39;;;;;;;1.50;1.40;;;23.80;52.90;;;;;;5081581;27;20599;-49
2022/06/29 01:36:20;;;;;;;2.30;1.53;;;23.80;52.90;;;;;;5076110;28;20610;-49
2022/06/29 01:39:02;;;;;;;1.30;1.20;;;23.80;52.80;;;;;;5076441;27;20555;-49
2022/06/29 01:41:43;;;;;;;1.47;1.13;;;23.80;52.90;;;;;;5117386;27;20529;-49
2022/06/29 01:44:23;;;;;;;1.43;1.23;;;23.80;52.80;;;;;;5085382;27;20589;-49
2022/06/29 01:47:05;;;;;;;1.50;1.30;;;23.80;52.80;;;;;;5064176;27;20526;-49
2022/06/29 01:49:45;;;;;;;2.17;1.23;;;23.80;52.80;;;;;;5076491;27;20588;-50
2022/06/29 01:52:27;;;;;;;1.23;1.13;;;23.80;52.90;;;;;;5069121;28;20563;-49
2022/06/29 01:55:08;;;;;;;1.20;1.10;;;23.80;52.90;;;;;;5071733;27;20550;-50
2022/06/29 01:57:48;;;;;;;1.80;1.17;;;23.80;52.80;;;;;;5127356;27;20529;-50
2022/06/29 02:00:29;;;;;;;1.50;1.40;;;23.80;52.90;;;;;;5144827;27;20614;-49
2022/06/29 02:03:16;;;;;;;1.33;1.23;;;23.80;52.80;;;;;;5141753;27;20961;-48
2022/06/29 02:06:03;;;;;;;1.63;1.53;;;23.80;52.80;;;;;;5067573;28;20462;-50
2022/06/29 02:08:55;;;;;;;1.30;1.20;;;23.80;52.90;;;;;;5107265;27;20669;-49
2022/06/29 02:11:36;;;;;;;1.43;1.20;;;23.70;52.70;;;;;;5090258;27;20576;-49
2022/06/29 02:14:16;;;;;;;1.63;1.53;;;23.70;52.80;;;;;;5043314;27;20538;-50
2022/06/29 02:16:56;;;;;;;5.40;1.40;;;23.70;52.80;;;;;;5110714;27;20935;-49
2022/06/29 02:19:37;;;;;;;1.20;1.10;;;23.70;52.60;;;;;;5048945;28;20589;-50
2022/06/29 02:22:17;;;;;;;1.30;1.20;;;23.70;52.70;;;;;;5079473;28;20595;-50
2022/06/29 02:25:02;;;;;;;1.47;1.37;;;23.70;52.80;;;;;;5063621;27;20591;-49
2022/06/29 02:27:45;;;;;;;2.00;1.47;;;23.70;52.70;;;;;;5087882;27;20522;-49
2022/06/29 02:36:18;;;;;;;0.90;0.90;;;23.70;52.70;;;;;;5081066;27;20549;-49
2022/06/29 02:39:00;;;;;;;1.23;1.13;;;23.70;52.70;;;;;;5120543;27;20666;-50
2022/06/29 02:41:40;;;;;;;1.20;1.10;;;23.70;52.70;;;;;;5128691;27;20564;-49
2022/06/29 02:44:22;;;;;;;1.40;1.30;;;23.70;52.70;;;;;;5063619;27;20617;-50
2022/06/29 02:47:02;;;;;;;1.10;1.00;;;23.70;52.70;;;;;;5087202;28;20580;-49
2022/06/29 02:49:43;;;;;;;1.20;1.10;;;23.70;52.70;;;;;;5062995;28;21076;-50
2022/06/29 02:52:24;;;;;;;1.87;1.50;;;23.70;52.70;;;;;;5102336;27;20527;-49
2022/06/29 02:55:05;;;;;;;1.30;1.20;;;23.70;52.60;;;;;;5073132;27;20603;-49
2022/06/29 02:57:46;;;;;;;2.13;1.30;;;23.70;52.50;;;;;;5086957;28;20585;-50
2022/06/29 03:00:25;;;;;;;4.00;1.17;;;23.70;52.70;;;;;;5058947;27;20965;-50
2022/06/29 03:03:06;;;;;;;1.40;1.30;;;23.70;52.70;;;;;;5091489;27;20533;-49
2022/06/29 03:05:47;;;;;;;1.30;1.10;;;23.60;52.70;;;;;;5076841;28;20599;-50
2022/06/29 03:08:28;;;;;;;1.20;1.10;;;23.60;52.70;;;;;;5076685;27;20579;-49
2022/06/29 03:11:11;;;;;;;2.67;1.20;;;23.70;52.80;;;;;;5102563;27;20584;-49
2022/06/29 03:13:51;;;;;;;1.73;1.30;;;23.60;52.70;;;;;;4997973;28;20548;-49
2022/06/29 03:16:32;;;;;;;1.10;1.00;;;23.60;52.70;;;;;;5144636;27;20658;-48
2022/06/29 03:19:14;;;;;;;1.07;1.00;;;23.60;52.70;;;;;;5043561;28;20967;-50
2022/06/29 03:21:55;;;;;;;1.37;1.27;;;23.60;52.70;;;;;;5124234;27;20582;-49
2022/06/29 03:24:35;;;;;;;1.33;1.23;;;23.60;52.70;;;;;;5063006;28;20961;-49
2022/06/29 03:27:16;;;;;;;1.50;1.20;;;23.60;52.70;;;;;;5068699;28;21056;-50
2022/06/29 03:29:58;;;;;;;1.77;1.10;;;23.60;52.70;;;;;;5033308;27;20970;-50
2022/06/29 03:32:38;;;;;;;1.30;1.17;;;23.60;52.70;;;;;;5085075;28;20589;-49
2022/06/29 03:35:19;;;;;;;1.30;1.20;;;23.60;52.70;;;;;;5053396;27;20630;-49
2022/06/29 03:38:00;;;;;;;1.67;1.17;;;23.60;52.50;;;;;;5127205;27;20595;-50
2022/06/29 03:40:42;;;;;;;1.40;1.30;;;23.60;52.60;;;;;;5088299;28;20520;-49
2022/06/29 03:43:23;;;;;;;1.13;1.03;;;23.60;52.70;;;;;;5104964;27;20528;-49
2022/06/29 03:46:05;;;;;;;1.70;1.27;;;23.60;52.60;;;;;;5140804;27;20533;-49
2022/06/29 03:48:45;;;;;;;1.20;1.10;;;23.60;52.70;;;;;;5071173;27;20552;-49
2022/06/29 03:51:26;;;;;;;1.13;1.03;;;23.60;52.70;;;;;;5080329;27;20583;-52
2022/06/29 03:54:07;;;;;;;1.50;1.20;;;23.60;52.70;;;;;;5101557;27;20593;-51
2022/06/29 03:56:47;;;;;;;1.00;1.00;;;23.60;52.70;;;;;;5088441;28;20510;-49
2022/06/29 03:59:27;;;;;;;1.30;1.10;;;23.60;52.70;;;;;;5068453;28;20609;-49
2022/06/29 04:02:06;;;;;;;1.87;1.47;;;23.50;52.60;;;;;;5075024;28;20621;-50
2022/06/29 04:04:46;;;;;;;1.07;0.97;;;23.50;52.60;;;;;;5042251;27;21131;-49
2022/06/29 04:07:28;;;;;;;2.70;1.20;;;23.50;52.60;;;;;;5078816;28;20581;-50
2022/06/29 04:10:09;;;;;;;1.53;1.37;;;23.60;52.70;;;;;;5096199;27;20534;-50
2022/06/29 04:12:49;;;;;;;1.30;1.20;;;23.50;52.60;;;;;;5091926;27;20569;-51
2022/06/29 04:15:29;;;;;;;1.60;1.50;;;23.50;52.60;;;;;;5064089;27;20602;-50
2022/06/29 04:18:10;;;;;;;1.37;1.27;;;23.50;52.40;;;;;;5072716;28;21052;-49
2022/06/29 04:21:07;;;;;;;1.33;1.23;;;23.50;52.50;;;;;;5105316;27;20511;-51
2022/06/29 04:23:47;;;;;;;1.37;1.27;;;23.50;52.60;;;;;;5116484;27;21420;-51
2022/06/29 04:26:27;;;;;;;1.43;1.30;;;23.50;52.60;;;;;;5116034;27;20950;-50
2022/06/29 04:29:09;;;;;;;1.33;1.20;;;23.50;52.60;;;;;;5101972;27;20591;-50
2022/06/29 04:31:48;;;;;;;1.47;1.37;;;23.50;52.60;;;;;;5080307;27;20581;-50
2022/06/29 04:34:28;;;;;;;1.20;1.10;;;23.50;52.60;;;;;;5052412;27;20539;-50
2022/06/29 04:37:10;;;;;;;0.90;0.90;;;23.50;52.60;;;;;;5124028;27;21206;-50
2022/06/29 04:39:50;;;;;;;1.57;1.17;;;23.50;52.60;;;;;;5044617;28;20539;-50
2022/06/29 04:42:31;;;;;;;1.53;0.90;;;23.50;52.60;;;;;;5111328;27;21177;-50
2022/06/29 04:46:19;;;;;;;1.00;0.93;;;23.50;52.60;;;;;;5061144;27;20542;-50
2022/06/29 04:48:13;;;;;;;1.70;1.60;;;23.50;52.60;;;;;;5084727;28;20528;-51
2022/06/29 04:50:53;;;;;;;1.43;1.13;;;23.50;52.60;;;;;;5123164;27;20517;-49
2022/06/29 04:53:32;;;;;;;1.93;1.23;;;23.50;52.60;;;;;;5059714;28;20954;-50
2022/06/29 04:56:13;;;;;;;1.20;1.10;;;23.50;52.60;;;;;;5108125;27;20576;-50
2022/06/29 04:58:54;;;;;;;2.10;1.00;;;23.50;52.60;;;;;;5056811;27;21142;-50
2022/06/29 05:01:35;;;;;;;1.37;1.10;;;23.50;52.60;;;;;;5085771;27;20931;-51
2022/06/29 05:04:17;;;;;;;2.33;1.30;;;23.50;52.60;;;;;;5059434;28;20642;-51
2022/06/29 05:06:58;;;;;;;1.43;1.33;;;23.50;52.60;;;;;;5079726;28;20539;-49
2022/06/29 05:09:39;;;;;;;1.40;1.30;;;23.50;52.60;;;;;;5070308;27;20952;-51
2022/06/29 05:12:19;;;;;;;1.50;1.40;;;23.50;52.60;;;;;;5088094;28;20573;-50
2022/06/29 05:15:04;;;;;;;2.30;1.50;;;23.50;52.60;;;;;;5069834;27;20565;-51
2022/06/29 05:17:47;;;;;;;1.20;1.10;;;23.40;52.50;;;;;;5087796;27;20637;-50
2022/06/29 05:20:29;;;;;;;1.60;1.50;;;23.40;52.50;;;;;;5068260;27;20544;-50
2022/06/29 05:23:10;;;;;;;1.43;1.10;;;23.40;52.60;;;;;;5087073;28;20561;-51
2022/06/29 05:25:51;;;;;;;1.10;1.00;;;23.40;52.60;;;;;;5066101;28;20953;-51
2022/06/29 05:28:31;;;;;;;1.83;1.53;;;23.40;52.70;;;;;;5080947;27;20561;-50
2022/06/29 05:31:13;;;;;;;1.80;1.43;;;23.40;52.70;;;;;;5090486;27;20585;-51
2022/06/29 05:33:54;;;;;;;1.30;1.20;;;23.40;52.80;;;;;;5073261;28;20968;-51
2022/06/29 05:36:34;;;;;;;1.30;1.00;;;23.40;52.80;;;;;;5068908;28;20548;-49
2022/06/29 05:39:15;;;;;;;1.10;1.00;;;23.40;52.90;;;;;;5109129;27;20589;-50
2022/06/29 05:41:56;;;;;;;3.03;1.27;;;23.40;52.90;;;;;;5087907;28;20919;-51
2022/06/29 05:44:38;;;;;;;2.10;1.27;;;23.40;53.00;;;;;;5048391;27;20987;-51
2022/06/29 05:47:18;;;;;;;1.40;1.27;;;23.40;53.10;;;;;;5088075;28;20520;-51
2022/06/29 05:50:00;;;;;;;1.70;1.10;;;23.40;53.20;;;;;;5112164;27;20575;-50
2022/06/29 05:52:41;;;;;;;1.40;1.20;;;23.40;53.20;;;;;;5079424;28;20585;-50
2022/06/29 05:55:22;;;;;;;1.43;1.20;;;23.40;53.30;;;;;;5063074;27;20547;-51
2022/06/29 05:58:02;;;;;;;2.47;1.30;;;23.30;53.20;;;;;;5135029;27;20570;-50
2022/06/29 06:00:43;;;;;;;1.37;1.27;;;23.40;53.30;;;;;;5082791;28;20594;-51
2022/06/29 06:03:24;;;;;;;1.33;1.23;;;23.40;53.30;;;;;;5101408;27;20596;-48
2022/06/29 06:06:06;;;;;;;1.90;1.50;;;23.40;53.30;;;;;;5069750;27;21061;-51
2022/06/29 06:08:47;;;;;;;1.53;1.23;;;23.40;53.50;;;;;;5112112;27;20599;-50
2022/06/29 06:11:28;;;;;;;1.90;1.17;;;23.40;53.40;;;;;;5108669;27;20520;-49
2022/06/29 06:14:09;;;;;;;2.70;1.47;;;23.40;54.80;;;;;;5071217;28;20565;-49
2022/06/29 06:16:50;;;;;;;4.73;1.50;;;23.40;53.50;;;;;;5128352;27;20572;-51
2022/06/29 06:19:31;;;;;;;1.40;1.30;;;23.40;53.50;;;;;;5051495;28;20552;-49
2022/06/29 06:22:12;;;;;;;1.47;1.37;;;23.30;53.50;;;;;;5086354;28;20585;-51
2022/06/29 06:24:52;;;;;;;1.83;1.60;;;23.30;53.50;;;;;;5045356;28;20601;-51
2022/06/29 06:27:33;;;;;;;1.27;0.90;;;23.30;53.50;;;;;;5071541;27;21115;-51
2022/06/29 06:30:14;;;;;;;2.00;1.20;;;23.30;53.50;;;;;;5088293;27;20551;-51
2022/06/29 06:32:56;;;;;;;1.50;1.03;;;23.30;53.50;;;;;;5108190;27;20584;-50
2022/06/29 06:39:25;;;;;;;1.30;1.20;;;23.30;53.50;;;;;;4957649;28;20567;-48
2022/06/29 06:42:07;;;;;;;2.40;1.20;;;23.30;53.50;;;;;;5093322;27;20585;-49
2022/06/29 06:44:48;;;;;;;1.37;1.27;;;23.30;53.50;;;;;;5055376;28;20967;-49
2022/06/29 06:47:29;;;;;;;1.63;1.20;;;23.30;53.60;;;;;;5082389;28;20532;-48
2022/06/29 06:50:09;;;;;;;2.20;1.25;;;23.30;53.60;;;;;;5107935;27;1342096;-49
2022/06/29 06:52:51;;;;;;;1.80;1.07;;;23.30;53.80;;;;;;5124102;27;20679;-48
2022/06/29 06:55:32;;;;;;;2.10;1.60;;;23.30;53.80;;;;;;5067280;27;21193;-48
2022/06/29 06:58:13;;;;;;;1.27;1.17;;;23.30;53.80;;;;;;5091687;27;20535;-48
2022/06/29 07:00:55;;;;;;;1.55;1.40;;;23.20;53.70;;;;;;5126648;27;20458;-47
2022/06/29 07:03:37;;;;;;;2.37;1.70;;;23.20;54.00;;;;;;5083172;27;20533;-47
2022/06/29 07:06:17;;;;;;;2.50;1.47;;;23.20;53.90;;;;;;5069401;27;20591;-47
2022/06/29 07:08:57;;;;;;;2.23;1.60;;;23.20;53.90;;;;;;5049348;27;20598;-48
2022/06/29 07:11:37;;;;;;;3.23;1.27;;;23.20;53.80;;;;;;5108928;27;20934;-48
2022/06/29 07:14:18;;;;;;;1.30;1.20;;;23.20;53.80;;;;;;5098378;27;20533;-48
2022/06/29 07:16:59;;;;;;;1.73;1.63;;;23.20;53.90;;;;;;5079975;27;20587;-48
2022/06/29 07:19:40;;;;;;;1.37;1.27;;;23.20;53.90;;;;;;5071887;27;20968;-49
2022/06/29 07:22:28;;;;;;;1.70;1.40;;;23.20;53.90;;;;;;5084513;28;20508;-48
2022/06/29 07:25:08;;;;;;;1.40;1.30;;;23.20;54.00;;;;;;5069873;27;20548;-48
2022/06/29 07:27:49;;;;;;;1.40;1.30;;;23.20;54.00;;;;;;5107453;27;20575;-48
2022/06/29 07:30:30;;;;;;;1.07;0.97;;;23.20;54.00;;;;;;5075374;27;21058;-49
2022/06/29 07:33:10;;;;;;;1.20;1.10;;;23.20;54.00;;;;;;5002856;28;20651;-48
2022/06/29 07:35:50;;;;;;;1.47;1.17;;;23.20;54.00;;;;;;5072522;28;20544;-49
2022/06/29 07:38:31;;;;;;;1.67;1.23;;;23.20;54.00;;;;;;5098218;27;20588;-48
2022/06/29 07:41:11;;;;;;;0.97;0.97;;;23.20;54.00;;;;;;5148491;27;20526;-48
2022/06/29 07:43:51;;;;;;;1.47;1.37;;;23.20;54.10;;;;;;5065388;28;20537;-48
2022/06/29 07:46:31;;;;;;;1.30;1.20;;;23.20;54.00;;;;;;5082040;27;20573;-49
2022/06/29 07:49:12;;;;;;;1.23;1.10;;;23.20;54.10;;;;;;5071807;27;20547;-49
2022/06/29 07:51:53;;;;;;;2.10;1.43;;;23.20;54.20;;;;;;5115979;27;20582;-48
2022/06/29 07:54:33;;;;;;;1.70;1.60;;;23.20;54.30;;;;;;5071846;27;20612;-48
2022/06/29 07:57:15;;;;;;;1.50;1.40;;;23.20;54.40;;;;;;5087173;27;20529;-48
2022/06/29 07:59:56;;;;;;;1.50;1.40;;;23.20;54.40;;;;;;5072134;27;21071;-48
2022/06/29 08:02:37;;;;;;;1.27;1.17;;;23.20;54.30;;;;;;5123777;27;20534;-49
2022/06/29 08:05:20;;;;;;;1.20;1.10;;;23.20;54.40;;;;;;5058238;27;20610;-48
2022/06/29 08:08:00;;;;;;;1.57;1.40;;;23.20;54.50;;;;;;5085830;28;20560;-48
2022/06/29 08:10:42;;;;;;;1.20;1.10;;;23.20;54.40;;;;;;5109030;27;20580;-48
2022/06/29 08:13:24;;;;;;;1.30;1.20;;;23.20;54.50;;;;;;5079671;27;20581;-47
2022/06/29 08:16:06;;;;;;;1.60;1.50;;;23.20;54.40;;;;;;5071304;27;20595;-48
2022/06/29 08:18:48;;;;;;;1.17;1.07;;;23.20;54.50;;;;;;5064711;27;20609;-48
2022/06/29 08:21:28;;;;;;;1.30;1.20;;;23.10;54.30;;;;;;5087414;27;21102;-48
2022/06/29 08:24:09;;;;;;;1.10;1.00;;;23.20;54.40;;;;;;5059520;27;20528;-49
2022/06/29 08:26:50;;;;;;;0.90;0.90;;;23.20;54.50;;;;;;5085310;28;20607;-48
2022/06/29 08:29:51;;;;;;;1.30;1.20;;;23.20;54.40;;;;;;5060848;28;20529;-48
2022/06/29 08:32:32;;;;;;;0.87;0.80;;;23.10;54.50;;;;;;5078259;28;20617;-47
2022/06/29 08:35:13;;;;;;;1.40;1.27;;;23.10;54.50;;;;;;5070372;27;21130;-47
2022/06/29 08:37:53;;;;;;;1.37;1.23;;;23.10;54.80;;;;;;5084311;27;20952;-49
2022/06/29 08:40:44;;;;;;;1.90;1.50;;;23.10;54.60;;;;;;5073356;27;20609;-49
2022/06/29 08:43:25;;;;;;;1.70;1.47;;;23.10;54.90;;;;;;5114313;27;20951;-48
2022/06/29 08:46:06;;;;;;;1.93;1.50;;;23.10;55.00;;;;;;5085893;28;20544;-47
2022/06/29 08:48:48;;;;;;;1.30;1.20;;;23.10;55.10;;;;;;5058128;28;20547;-49
2022/06/29 08:51:33;;;;;;;2.70;1.50;;;23.10;55.10;;;;;;5087410;28;20502;-49
2022/06/29 08:54:17;;;;;;;1.93;1.40;;;23.10;55.10;;;;;;5056839;28;20594;-48
2022/06/29 08:56:59;;;;;;;2.97;1.40;;;23.10;54.90;;;;;;5086879;28;20578;-48
2022/06/29 08:59:39;;;;;;;1.93;1.10;;;23.10;55.20;;;;;;5064148;27;20607;-48
2022/06/29 09:02:40;;;;;;;1.00;0.90;;;23.10;55.20;;;;;;5080963;27;20541;-48
2022/06/29 09:05:21;;;;;;;1.33;1.23;;;23.10;55.10;;;;;;5052333;27;20601;-47
2022/06/29 09:08:01;;;;;;;1.00;0.90;;;23.10;54.90;;;;;;5099624;27;20530;-48
2022/06/29 09:10:42;;;;;;;1.13;1.03;;;23.10;55.00;;;;;;5087335;28;20530;-49
2022/06/29 09:13:23;;;;;;;2.33;1.30;;;23.10;55.00;;;;;;5124449;27;20517;-49
2022/06/29 09:16:04;;;;;;;1.20;1.10;;;23.10;56.20;;;;;;5073185;27;21071;-49
2022/06/29 09:18:45;;;;;;;3.03;1.10;;;23.10;54.90;;;;;;5112721;27;20527;-49
2022/06/29 09:21:26;;;;;;;2.10;1.20;;;23.10;55.00;;;;;;5087495;28;20511;-49
2022/06/29 09:24:14;;;;;;;2.10;1.13;;;23.10;55.10;;;;;;5069887;28;20592;-48
2022/06/29 09:26:57;;;;;;;1.97;1.57;;;23.10;55.10;;;;;;5087025;28;20568;-48
2022/06/29 09:29:41;;;;;;;1.60;1.50;;;23.10;55.20;;;;;;5094831;27;21053;-48
2022/06/29 09:32:24;;;;;;;1.23;1.20;;;23.10;55.30;;;;;;5081510;28;20530;-50
2022/06/29 09:35:13;;;;;;;1.42;1.25;;;23.10;55.10;;;;;;5097151;27;1197007;-48
2022/06/29 09:37:54;;;;;;;1.77;1.30;;;23.10;55.10;;;;;;5084303;28;20950;-49
2022/06/29 09:40:36;;;;;;;1.00;0.90;;;23.10;54.90;;;;;;5127879;27;20530;-48
2022/06/29 09:43:17;;;;;;;1.93;1.17;;;23.10;54.90;;;;;;5069214;28;20585;-49
2022/06/29 09:45:57;;;;;;;1.20;1.10;;;23.10;54.90;;;;;;5079500;27;21050;-48
2022/06/29 09:48:39;;;;;;;2.60;1.30;;;23.10;54.80;;;;;;5082715;28;20528;-48
2022/06/29 09:51:33;;;;;;;1.97;1.53;;;23.10;54.80;;;;;;5135042;27;20578;-48
2022/06/29 09:54:14;;;;;;;1.33;1.20;;;23.10;54.70;;;;;;5074402;28;21019;-48
2022/06/29 09:56:58;;;;;;;1.30;1.20;;;23.10;56.00;;;;;;5107000;27;20534;-47
2022/06/29 10:02:44;;;;;;;1.20;1.10;;;23.00;54.70;;;;;;5146253;27;21037;-48
2022/06/29 10:05:54;;;;;;;1.33;1.23;;;23.10;54.80;;;;;;5054821;27;20547;-48
2022/06/29 10:08:27;;;;;;;1.63;1.10;;;23.10;54.80;;;;;;5139439;27;20583;-48
2022/06/29 10:14:32;;;;;;;1.80;1.30;;;23.00;54.70;;;;;;5059120;28;20558;-49
2022/06/29 10:17:43;;;;;;;1.67;1.53;;;23.00;54.80;;;;;;5130514;22;20663;31
2022/06/29 10:20:42;;;;;;;1.63;1.53;;;23.10;54.80;;;;;;5072583;27;20607;-49
2022/06/29 10:23:48;;;;;;;1.13;1.03;;;23.00;54.80;;;;;;5122742;27;20589;-48
2022/06/29 10:26:49;;;;;;;1.17;1.07;;;23.00;54.70;;;;;;5084793;28;20598;-47
2022/06/29 10:29:36;;;;;;;1.70;1.50;;;23.00;54.70;;;;;;5094095;27;20941;-49
2022/06/29 10:32:19;;;;;;;1.37;1.27;;;23.00;54.60;;;;;;5082968;28;20586;-49
2022/06/29 10:35:07;;;;;;;1.97;1.40;;;23.00;54.60;;;;;;5071847;27;21069;-49
2022/06/29 10:37:52;;;;;;;1.67;1.20;;;23.00;54.60;;;;;;5113811;27;20546;-46
2022/06/29 10:40:33;;;;;;;1.30;1.20;;;23.00;54.60;;;;;;5057982;27;20556;-47
2022/06/29 10:43:21;;;;;;;3.63;1.90;;;23.00;54.90;;;;;;5124053;27;20513;-49
2022/06/29 10:46:02;;;;;;;1.10;1.00;;;23.00;54.50;;;;;;5113111;27;20603;-50
2022/06/29 10:49:27;;;;;;;2.10;1.33;;;23.10;54.50;;;;;;5073025;28;20947;-47
2022/06/29 10:52:08;;;;;;;1.60;1.30;;;23.10;54.60;;;;;;5083224;28;20531;-49
2022/06/29 10:54:50;;;;;;;1.50;1.40;;;23.10;54.50;;;;;;5061680;28;20555;-48
2022/06/29 10:57:33;;;;;;;2.13;1.30;;;23.10;54.40;;;;;;5086149;27;20658;-48
2022/06/29 11:00:18;;;;;;;1.20;1.03;;;23.10;54.50;;;;;;5068207;27;20603;-47
2022/06/29 11:03:07;;;;;;;2.20;1.30;;;23.10;54.50;;;;;;5081422;28;21147;-47
2022/06/29 11:12:05;;;;;;;1.40;1.30;;;23.10;54.30;;;;;;5125235;27;20650;-47
2022/06/29 11:17:50;;;;;;;1.20;1.10;;;23.10;54.40;;;;;;5115525;27;20516;-49
2022/06/29 11:20:30;;;;;;;3.33;1.37;;;23.10;54.50;;;;;;5058820;27;20596;-47
2022/06/29 11:23:12;;;;;;;1.73;1.63;;;23.10;54.50;;;;;;5084623;28;20530;-47
2022/06/29 11:25:54;;;;;;;1.50;1.40;;;23.10;54.50;;;;;;5092919;27;20563;-49
2022/06/29 11:28:36;;;;;;;1.40;1.30;;;23.10;54.60;;;;;;5122191;27;20550;-47
2022/06/29 11:31:22;;;;;;;1.27;1.17;;;23.10;54.50;;;;;;5131279;27;20521;-47
2022/06/29 11:34:03;;;;;;;4.10;1.90;;;23.10;54.30;;;;;;5065134;28;20452;-47
2022/06/29 11:36:43;;;;;;;1.87;1.10;;;23.10;52.90;;;;;;5086693;28;20575;-48
2022/06/29 11:39:24;;;;;;;1.35;1.25;;;23.10;53.30;;;;;;5106108;27;1213561;-46
2022/06/29 11:45:08;;;;;;;1.53;1.43;;;23.10;54.00;;;;;;5068215;28;20591;-47
2022/06/29 11:47:53;;;;;;;2.35;1.50;;;23.10;53.80;;;;;;5104574;27;20467;-48
2022/06/29 11:50:42;;;;;;;3.90;1.40;;;23.20;54.20;;;;;;5066638;27;20616;-53
2022/06/29 11:53:42;;;;;;;1.40;1.30;;;23.20;53.30;;;;;;5097249;27;20603;-48
2022/06/29 11:56:27;;;;;;;4.83;1.40;;;23.20;53.50;;;;;;5120009;27;20852;-47
2022/06/29 11:59:07;;;;;;;2.00;1.57;;;23.10;53.10;;;;;;5082087;27;21131;-48
2022/06/29 12:01:54;;;;;;;1.50;1.30;;;23.10;53.20;;;;;;5111553;27;20538;-52
2022/06/29 12:04:37;;;;;;;2.27;1.30;;;23.10;53.40;;;;;;5103480;27;20528;-50
2022/06/29 12:07:19;;;;;;;1.70;1.60;;;23.10;53.40;;;;;;5079463;27;20944;-49
2022/06/29 12:10:00;;;;;;;2.60;1.30;;;23.10;53.30;;;;;;5088712;27;20601;-48
2022/06/29 12:12:41;;;;;;;1.60;1.27;;;23.10;53.40;;;;;;5107102;27;20532;-47
2022/06/29 12:15:22;;;;;;;1.63;1.40;;;23.10;53.50;;;;;;5053168;27;20558;-49
2022/06/29 12:18:03;;;;;;;3.13;1.58;;;23.10;53.50;;;;;;5108429;27;1273840;-48
2022/06/29 12:20:43;;;;;;;1.33;1.23;;;23.10;53.50;;;;;;5110971;27;20459;-49
2022/06/29 12:23:23;;;;;;;1.30;1.20;;;23.10;53.20;;;;;;5108218;27;20593;-50
2022/06/29 12:26:04;;;;;;;2.70;1.27;;;23.20;52.90;;;;;;5077026;28;20560;-47
2022/06/29 12:28:44;;;;;;;2.10;1.33;;;23.10;52.80;;;;;;5071746;28;21055;-48
2022/06/29 12:31:24;;;;;;;3.13;1.60;;;23.10;52.90;;;;;;5078231;28;20587;-48
2022/06/29 12:34:07;;;;;;;1.80;1.70;;;23.10;52.90;;;;;;5111286;27;20943;-48
2022/06/29 12:37:08;;;;;;;1.50;1.40;;;23.10;52.80;;;;;;5127561;27;20521;-51
2022/06/29 12:39:48;;;;;;;2.90;1.43;;;23.10;52.80;;;;;;5067139;27;20940;-49
2022/06/29 12:42:29;;;;;;;1.63;1.50;;;23.10;52.90;;;;;;5107539;27;20573;-49
2022/06/29 12:45:10;;;;;;;1.43;1.20;;;23.20;53.00;;;;;;5074040;27;20549;-47
2022/06/29 12:47:57;;;;;;;1.70;1.20;;;23.10;52.90;;;;;;5105980;27;20535;-48
2022/06/29 12:50:38;;;;;;;4.63;1.73;;;23.20;53.20;;;;;;5076340;28;20541;-49
2022/06/29 12:53:23;;;;;;;1.70;1.60;;;23.20;53.20;;;;;;5117713;27;20619;-48
2022/06/29 12:56:05;;;;;;;1.50;1.30;;;23.20;53.20;;;;;;5078000;28;20658;-48
2022/06/29 12:58:45;;;;;;;2.70;1.40;;;23.20;53.20;;;;;;5083340;27;20953;-48
2022/06/29 13:01:26;;;;;;;5.43;1.60;;;23.20;53.10;;;;;;5081179;28;20563;-46
2022/06/29 13:04:14;;;;;;;3.43;1.60;;;23.10;52.90;;;;;;5116464;27;20601;-48
2022/06/29 13:06:55;;;;;;;2.20;1.57;;;23.20;53.20;;;;;;5087722;28;21075;-48
2022/06/29 13:09:35;;;;;;;1.43;1.33;;;23.20;53.20;;;;;;5031429;28;20551;-46
2022/06/29 13:12:16;;;;;;;2.67;1.60;;;23.10;53.20;;;;;;5063051;27;21102;-47
2022/06/29 13:14:57;;;;;;;2.20;1.43;;;23.10;53.20;;;;;;5071279;27;20677;-47
2022/06/29 13:17:39;;;;;;;1.30;1.20;;;23.10;53.10;;;;;;5080642;28;20597;-48
2022/06/29 13:20:21;;;;;;;2.23;1.60;;;23.10;53.00;;;;;;5139325;27;20564;-50
2022/06/29 13:23:02;;;;;;;1.70;1.40;;;23.10;53.00;;;;;;5068017;27;20547;-48
2022/06/29 13:25:43;;;;;;;1.53;1.30;;;23.10;53.00;;;;;;5075783;27;20595;-47
2022/06/29 13:28:27;;;;;;;1.60;1.50;;;23.20;53.10;;;;;;5112926;27;20578;-47
2022/06/29 13:31:08;;;;;;;2.00;1.50;;;23.20;53.20;;;;;;5080785;27;20653;-48
2022/06/29 13:33:49;;;;;;;1.67;1.00;;;23.20;53.20;;;;;;5054529;28;20539;-49
2022/06/29 13:36:30;;;;;;;2.50;1.30;;;23.20;53.30;;;;;;5119321;27;20575;-50
2022/06/29 13:39:12;;;;;;;1.93;1.80;;;23.20;53.10;;;;;;5061896;28;20606;-48
2022/06/29 13:41:53;;;;;;;2.40;2.20;;;23.20;53.10;;;;;;5109765;27;20572;-49
2022/06/29 13:44:40;;;;;;;3.45;1.90;;;23.20;52.30;;;;;;5053483;27;20508;-49
2022/06/29 13:47:21;;;;;;;2.60;1.67;;;23.20;50.90;;;;;;5104047;27;20643;-49
2022/06/29 13:50:02;;;;;;;2.53;1.70;;;23.30;50.60;;;;;;5069603;27;20569;-47
2022/06/29 13:52:48;;;;;;;3.70;2.10;;;23.30;50.50;;;;;;5092399;27;21112;-49
2022/06/29 13:55:28;;;;;;;2.10;1.93;;;23.40;50.40;;;;;;5069777;27;20596;-47
2022/06/29 13:58:09;;;;;;;2.57;1.50;;;23.40;50.20;;;;;;5104915;27;20589;-50
2022/06/29 14:00:49;;;;;;;1.47;1.37;;;23.50;49.60;;;;;;5084045;27;20593;-49
2022/06/29 14:03:31;;;;;;;2.07;1.90;;;23.50;49.50;;;;;;5059857;28;20618;-48
2022/06/29 14:06:12;;;;;;;2.00;1.80;;;23.50;49.10;;;;;;5084520;27;20535;-48
2022/06/29 14:08:52;;;;;;;2.50;1.80;;;23.50;49.10;;;;;;5112222;27;20601;-48
2022/06/29 14:11:43;;;;;;;1.93;1.83;;;23.50;48.90;;;;;;5127662;27;20517;-48
2022/06/29 14:14:24;;;;;;;3.57;1.63;;;23.50;48.90;;;;;;5043554;27;20602;-49
2022/06/29 14:17:04;;;;;;;2.77;2.57;;;23.50;48.80;;;;;;5077297;27;20867;-50
2022/06/29 14:19:45;;;;;;;1.77;1.67;;;23.60;48.90;;;;;;5048069;27;20606;-49
2022/06/29 14:22:29;;;;;;;2.03;1.50;;;23.60;49.10;;;;;;5080778;28;20557;-48
2022/06/29 14:25:11;;;;;;;1.87;1.77;;;23.60;49.10;;;;;;5063844;28;20550;-47
2022/06/29 14:27:51;;;;;;;2.07;1.87;;;23.60;49.10;;;;;;5128472;27;20606;-50
2022/06/29 14:30:31;;;;;;;1.70;1.60;;;23.60;48.90;;;;;;5065224;27;20557;-48
2022/06/29 14:33:13;;;;;;;2.00;1.90;;;23.60;48.70;;;;;;5066206;28;20536;-47